Glen Arbor, MI (49636)

10:36 AM EDT on August 04, 2015 (GMT -0400)
MesoWest | | Change Station
CLOSE
Current Station
Personal Weather Station
Location: Lake Ann, MI
Elevation: 918 ft
Nearby Weather Stations

Elev 918 ft 44.81 °N, 85.90 °W | Updated 36 minutes ago

Overcast
Overcast
65 °F
Feels Like 65 °F
N
7
Wind Variable Wind from NW
Gusts 14.0 mph

Today
High -- | Low -- °F
--% Chance of Precip.
Yesterday
High -- | Low -- °F
Precip. -- in
6:32 AM 9:06 PM
Waning Gibbous, 77% visible
Pressure 29.92 in
Visibility 10.0 miles
Clouds Scattered Clouds 2000 ft
Mostly Cloudy 2600 ft
Mostly Cloudy 7500 ft
Dew Point 61 °F
Humidity 87%
Rainfall in
Snow Depth Not available.
UV 2 out of 12
Pollen 6.30 out of 12
Air Quality Not available.
Flu Activity Not available.
METAR KFKS 041414Z AUTO 31006KT 10SM SCT020 BKN026 BKN075 20/15 A2992 RMK AO2 T02020152

More Conditions Fewer Conditions

Pressure 29.92 in
Visibility 10.0 miles
Clouds Scattered Clouds 2000 ft
Mostly Cloudy 2600 ft
Mostly Cloudy 7500 ft
Dew Point 61 °F
Humidity 87%
Rainfall in
Snow Depth Not available.
UV 2 out of 12
Pollen 6.30 out of 12
Air Quality Not available.
Flu Activity Not available.
METAR KFKS 041414Z AUTO 31006KT 10SM SCT020 BKN026 BKN075 20/15 A2992 RMK AO2 T02020152

More Conditions Fewer Conditions

Nowcast | as of 9:00 am EDT on August 4, 2015

At 10 am...numerous showers. Temperature 64. Northwest winds 10 mph. At 12 PM...mostly cloudy. Isolated showers. Temperature 66. Northwest winds 13 mph. At 2 PM...partly cloudy. Scattered showers. Temperature 67. Northwest winds 12 mph. At 4 PM...partly cloudy. Scattered showers. Temperature 67. Northwest winds 11 mph.

×

10-Day Weather Forecast

×

Almanac

Astronomy

Aug. 04, 2015 Rise Set
Actual Time
Civil Twilight
Nautical Twilight
Astronomical Twilight
Moon
Length of Visible Light
Length of Day
Tomorrow will be .
, % of the Moon is Illuminated

Today's Extremes

State Highs State Lows

Community

WunderPhotos

Upload Photos

1,843,921 photos uploaded!

WunderBlogs® & News

Nearby

Air Quality

  Air Quality AQ Index Pollutant
Not available.

Snow Depth

Station Depth Elevation

Earthquake Activity

City Distance Mag. Time & Date
Minimum magnitude displayed is 2.5.

Coastal Water Temperatures

Place Temperature

Stations

Nearby Weather Stations

Station Location Temp. Windchill Dew Point Humidity Wind Precip. Elev Updated Type